Norwegian Jewel — C6TX6 — position and weather

sailwx.info

Track history (hours):
 
Tides and Currents Weather Stations Pressure Air Temp Water Temp Dewpoint Dewpoint Depression Visibility Wind Speed Wind Dir Waves Ship Positions

Norwegian Jewel

Last reported at 2018-Oct-10 12:02 UTC. Time now 2018-Oct-20 12:50 UTC.
Position N 25°22' E 121°11'.
Warning: this ship's position is 10 days out of date.

Type: Ship. MMSI: 311827000.

Date/timePositionNaut miles runAvg speedWind from/ knotsBaromVisibWave heightAir tempDewpointWater temp
2018-Oct-10 12:02N 25°22' E 121°11'1123.9
2018-Oct-10 11:35N 25°22' E 121°23'224.9
2018-Oct-10 11:29N 25°22' E 121°25'1125.3
2018-Oct-10 11:03N 25°20' E 121°37'223.7
2018-Oct-10 10:58N 25°19' E 121°40'1018.0
2018-Oct-10 10:25N 25°11' E 121°45'3 5.9
2018-Oct-10 09:59N 25°08' E 121°45'0 0.0
2018-Oct-10 09:23N 25°08' E 121°45'0 0.0
2018-Oct-10 08:58N 25°08' E 121°45'0 0.0
2018-Oct-10 08:28N 25°08' E 121°45'0 0.0
2018-Oct-10 07:58N 25°08' E 121°45'0 0.0
2018-Oct-10 07:22N 25°08' E 121°45'0 0.0
2018-Oct-10 06:58N 25°08' E 121°45'0 0.0
2018-Oct-10 06:27N 25°08' E 121°45'0 0.0
2018-Oct-10 05:57N 25°08' E 121°45'0 0.0
2018-Oct-10 05:27N 25°08' E 121°45'0 0.0
2018-Oct-10 05:03N 25°08' E 121°45'0 0.0
2018-Oct-10 04:51N 25°08' E 121°45'0 0.0
2018-Oct-10 04:27N 25°08' E 121°45'0 0.0
2018-Oct-10 03:02N 25°08' E 121°45'0 0.0
2018-Oct-10 02:56N 25°08' E 121°45'0 0.0
2018-Oct-10 02:26N 25°08' E 121°45'0 0.0
2018-Oct-10 01:56N 25°08' E 121°45'0 0.0
2018-Oct-10 01:25N 25°08' E 121°45'0 0.0
2018-Oct-10 01:01N 25°08' E 121°45'0 0.0
2018-Oct-10 00:55N 25°08' E 121°45'0 0.0
2018-Oct-10 00:25N 25°08' E 121°45'0 0.0
2018-Oct-10 00:01N 25°08' E 121°45'0 0.0
2018-Oct-09 23:55N 25°08' E 121°45'0 0.0
2018-Oct-09 23:25N 25°08' E 121°45'1 3.1
2018-Oct-09 23:03N 25°09' E 121°45'0 0.5
2018-Oct-09 22:58N 25°09' E 121°45'511.3
2018-Oct-09 22:29N 25°14' E 121°45'921.4
2018-Oct-09 22:03N 25°22' E 121°49'222.4
2018-Oct-09 21:58N 25°24' E 121°51'1221.8
2018-Oct-09 21:27N 25°31' E 122°00'1022.6
2018-Oct-09 20:59N 25°37' E 122°10'1222.4
2018-Oct-09 20:27N 25°43' E 122°22'  
2018-Oct-06 12:38N 35°02' E 139°37'314.1
2018-Oct-06 12:24N 35°04' E 139°40'513.9
2018-Oct-06 12:01N 35°08' E 139°45'013.3
2018-Oct-06 12:00N 35°08' E 139°45'5 9.7
2018-Oct-06 11:30N 35°13' E 139°46'4 9.2
2018-Oct-06 11:03N 35°17' E 139°45'113.2
2018-Oct-06 11:00N 35°18' E 139°44'613.1
2018-Oct-06 10:31N 35°24' E 139°42'4 9.6
2018-Oct-06 10:03N 35°27' E 139°40'0 7.9
2018-Oct-06 10:00N 35°27' E 139°39'0 0.7
2018-Oct-06 09:30N 35°27' E 139°39'0 0.0
2018-Oct-06 09:03N 35°27' E 139°39'0 0.0
2018-Oct-06 08:57N 35°27' E 139°39'0 0.0
2018-Oct-06 08:30N 35°27' E 139°39'0 0.0
2018-Oct-06 08:03N 35°27' E 139°39'0 0.0
2018-Oct-06 07:59N 35°27' E 139°39'0 0.0
2018-Oct-06 07:29N 35°27' E 139°39'0 0.0
2018-Oct-06 07:02N 35°27' E 139°39'0 0.0
2018-Oct-06 06:59N 35°27' E 139°39'0 0.0
2018-Oct-06 06:29N 35°27' E 139°39'0 0.0
2018-Oct-06 06:02N 35°27' E 139°39'0 0.0
2018-Oct-06 05:59N 35°27' E 139°39'0 0.0
2018-Oct-06 05:28N 35°27' E 139°39'0 0.0
2018-Oct-06 05:01N 35°27' E 139°39'0 0.1
2018-Oct-06 04:55N 35°27' E 139°39'0 0.0
2018-Oct-06 04:28N 35°27' E 139°39'0 0.0
2018-Oct-06 04:01N 35°27' E 139°39'0 0.0
2018-Oct-06 03:58N 35°27' E 139°39'0 0.0
2018-Oct-06 03:28N 35°27' E 139°39'0 0.0
2018-Oct-06 03:03N 35°27' E 139°39'0 0.0
2018-Oct-06 03:00N 35°27' E 139°39'0 0.0
2018-Oct-06 02:30N 35°27' E 139°39'0 0.0
2018-Oct-06 02:03N 35°27' E 139°39'0 0.0
2018-Oct-06 02:00N 35°27' E 139°39'0 0.0
2018-Oct-06 01:30N 35°27' E 139°39'0 0.0
2018-Oct-06 01:03N 35°27' E 139°39'0 0.0
2018-Oct-06 01:00N 35°27' E 139°39'0 0.0
2018-Oct-06 00:29N 35°27' E 139°39'0 0.0
2018-Oct-06 00:02N 35°27' E 139°39'0 0.1
2018-Oct-05 23:59N 35°27' E 139°39'0 0.0
2018-Oct-05 23:29N 35°27' E 139°39'0 0.0
2018-Oct-05 23:02N 35°27' E 139°39'0 0.1
2018-Oct-05 22:59N 35°27' E 139°39'0 0.0
2018-Oct-05 22:28N 35°27' E 139°39'0 0.0
2018-Oct-05 22:01N 35°27' E 139°39'0 0.0
2018-Oct-05 21:58N 35°27' E 139°39'0 0.0
2018-Oct-05 21:30N 35°27' E 139°39'0 0.8
2018-Oct-05 21:04N 35°28' E 139°39'0 0.2
2018-Oct-05 21:00N 35°28' E 139°39'3 6.1
2018-Oct-05 20:30N 35°26' E 139°42'3 7.3
2018-Oct-05 20:03N 35°23' E 139°43'111.2
2018-Oct-05 20:00N 35°22' E 139°43'611.9
2018-Oct-05 19:30N 35°17' E 139°46'511.6
2018-Oct-05 19:03N 35°12' E 139°47'111.4
2018-Oct-05 19:00N 35°11' E 139°47'713.2
2018-Oct-05 18:30N 35°05' E 139°45'715.5
2018-Oct-05 18:02N 34°58' E 139°41'117.9
2018-Oct-05 17:59N 34°57' E 139°41'  
Track history (hours):
 
Tides and Currents Weather Stations Pressure Air Temp Water Temp Dewpoint Dewpoint Depression Visibility Wind Speed Wind Dir Waves Ship Positions

Norwegian Jewel

Last reported at 2018-Oct-10 12:02 UTC. Time now 2018-Oct-20 12:50 UTC.
Position N 25°22' E 121°11'.
Warning: this ship's position is 10 days out of date.

Type: Ship. MMSI: 311827000.

Date/timePositionNaut miles runAvg speedWind from/ knotsBaromVisibWave heightAir tempDewpointWater temp
2018-Oct-10 12:02N 25°22' E 121°11'1123.9
2018-Oct-10 11:35N 25°22' E 121°23'224.9
2018-Oct-10 11:29N 25°22' E 121°25'1125.3
2018-Oct-10 11:03N 25°20' E 121°37'223.7
2018-Oct-10 10:58N 25°19' E 121°40'1018.0
2018-Oct-10 10:25N 25°11' E 121°45'3 5.9
2018-Oct-10 09:59N 25°08' E 121°45'0 0.0
2018-Oct-10 09:23N 25°08' E 121°45'0 0.0
2018-Oct-10 08:58N 25°08' E 121°45'0 0.0
2018-Oct-10 08:28N 25°08' E 121°45'0 0.0
2018-Oct-10 07:58N 25°08' E 121°45'0 0.0
2018-Oct-10 07:22N 25°08' E 121°45'0 0.0
2018-Oct-10 06:58N 25°08' E 121°45'0 0.0
2018-Oct-10 06:27N 25°08' E 121°45'0 0.0
2018-Oct-10 05:57N 25°08' E 121°45'0 0.0
2018-Oct-10 05:27N 25°08' E 121°45'0 0.0
2018-Oct-10 05:03N 25°08' E 121°45'0 0.0
2018-Oct-10 04:51N 25°08' E 121°45'0 0.0
2018-Oct-10 04:27N 25°08' E 121°45'0 0.0
2018-Oct-10 03:02N 25°08' E 121°45'0 0.0
2018-Oct-10 02:56N 25°08' E 121°45'0 0.0
2018-Oct-10 02:26N 25°08' E 121°45'0 0.0
2018-Oct-10 01:56N 25°08' E 121°45'0 0.0
2018-Oct-10 01:25N 25°08' E 121°45'0 0.0
2018-Oct-10 01:01N 25°08' E 121°45'0 0.0
2018-Oct-10 00:55N 25°08' E 121°45'0 0.0
2018-Oct-10 00:25N 25°08' E 121°45'0 0.0
2018-Oct-10 00:01N 25°08' E 121°45'0 0.0
2018-Oct-09 23:55N 25°08' E 121°45'0 0.0
2018-Oct-09 23:25N 25°08' E 121°45'1 3.1
2018-Oct-09 23:03N 25°09' E 121°45'0 0.5
2018-Oct-09 22:58N 25°09' E 121°45'511.3
2018-Oct-09 22:29N 25°14' E 121°45'921.4
2018-Oct-09 22:03N 25°22' E 121°49'222.4
2018-Oct-09 21:58N 25°24' E 121°51'1221.8
2018-Oct-09 21:27N 25°31' E 122°00'1022.6
2018-Oct-09 20:59N 25°37' E 122°10'1222.4
2018-Oct-09 20:27N 25°43' E 122°22'  
2018-Oct-06 12:38N 35°02' E 139°37'314.1
2018-Oct-06 12:24N 35°04' E 139°40'513.9
2018-Oct-06 12:01N 35°08' E 139°45'013.3
2018-Oct-06 12:00N 35°08' E 139°45'5 9.7
2018-Oct-06 11:30N 35°13' E 139°46'4 9.2
2018-Oct-06 11:03N 35°17' E 139°45'113.2
2018-Oct-06 11:00N 35°18' E 139°44'613.1
2018-Oct-06 10:31N 35°24' E 139°42'4 9.6
2018-Oct-06 10:03N 35°27' E 139°40'0 7.9
2018-Oct-06 10:00N 35°27' E 139°39'0 0.7
2018-Oct-06 09:30N 35°27' E 139°39'0 0.0
2018-Oct-06 09:03N 35°27' E 139°39'0 0.0
2018-Oct-06 08:57N 35°27' E 139°39'0 0.0
2018-Oct-06 08:30N 35°27' E 139°39'0 0.0
2018-Oct-06 08:03N 35°27' E 139°39'0 0.0
2018-Oct-06 07:59N 35°27' E 139°39'0 0.0
2018-Oct-06 07:29N 35°27' E 139°39'0 0.0
2018-Oct-06 07:02N 35°27' E 139°39'0 0.0
2018-Oct-06 06:59N 35°27' E 139°39'0 0.0
2018-Oct-06 06:29N 35°27' E 139°39'0 0.0
2018-Oct-06 06:02N 35°27' E 139°39'0 0.0
2018-Oct-06 05:59N 35°27' E 139°39'0 0.0
2018-Oct-06 05:28N 35°27' E 139°39'0 0.0
2018-Oct-06 05:01N 35°27' E 139°39'0 0.1
2018-Oct-06 04:55N 35°27' E 139°39'0 0.0
2018-Oct-06 04:28N 35°27' E 139°39'0 0.0
2018-Oct-06 04:01N 35°27' E 139°39'0 0.0
2018-Oct-06 03:58N 35°27' E 139°39'0 0.0
2018-Oct-06 03:28N 35°27' E 139°39'0 0.0
2018-Oct-06 03:03N 35°27' E 139°39'0 0.0
2018-Oct-06 03:00N 35°27' E 139°39'0 0.0
2018-Oct-06 02:30N 35°27' E 139°39'0 0.0
2018-Oct-06 02:03N 35°27' E 139°39'0 0.0
2018-Oct-06 02:00N 35°27' E 139°39'0 0.0
2018-Oct-06 01:30N 35°27' E 139°39'0 0.0
2018-Oct-06 01:03N 35°27' E 139°39'0 0.0
2018-Oct-06 01:00N 35°27' E 139°39'0 0.0
2018-Oct-06 00:29N 35°27' E 139°39'0 0.0
2018-Oct-06 00:02N 35°27' E 139°39'0 0.1
2018-Oct-05 23:59N 35°27' E 139°39'0 0.0
2018-Oct-05 23:29N 35°27' E 139°39'0 0.0
2018-Oct-05 23:02N 35°27' E 139°39'0 0.1
2018-Oct-05 22:59N 35°27' E 139°39'0 0.0
2018-Oct-05 22:28N 35°27' E 139°39'0 0.0
2018-Oct-05 22:01N 35°27' E 139°39'0 0.0
2018-Oct-05 21:58N 35°27' E 139°39'0 0.0
2018-Oct-05 21:30N 35°27' E 139°39'0 0.8
2018-Oct-05 21:04N 35°28' E 139°39'0 0.2
2018-Oct-05 21:00N 35°28' E 139°39'3 6.1
2018-Oct-05 20:30N 35°26' E 139°42'3 7.3
2018-Oct-05 20:03N 35°23' E 139°43'111.2
2018-Oct-05 20:00N 35°22' E 139°43'611.9
2018-Oct-05 19:30N 35°17' E 139°46'511.6
2018-Oct-05 19:03N 35°12' E 139°47'111.4
2018-Oct-05 19:00N 35°11' E 139°47'713.2
2018-Oct-05 18:30N 35°05' E 139°45'715.5
2018-Oct-05 18:02N 34°58' E 139°41'117.9
2018-Oct-05 17:59N 34°57' E 139°41'  

Dump ship's entire track history